Aeroporto :
LOGIN :

Iscrizione | Disclaimer

   EN    FR    IT 

 










Sommario :    VFR   VFR Marginale   IFR   IFR Intensivo   IFR Molto Intensivo
Visibilità : 
Base nubi : 
>= 8 km
>= 3000ft
5 / 8 km
1000 / 3000 ft
1500m / 5 km
500 / 1000 ft
800 / 1500m
200 / 500 ft
< 800m
< 200 ft
Simboli :   Temporali  Nebbia  Neve Forte  Precipitazioni Forti  Vento > 20 kt
SIGMETs :   Varie  Temporali  Ghiacco  Turbolenza  Onda orograficha  Ceneri Vulcaniche






- Altitudine del aeroporto : 49 ft
- Codice IATA : GLZ


EHGR - Gilze-Rijen Airbase

ULTIMO METAR :
  • 031025Z AUTO 28008KT 230V340 9999 OVC200 21/09 Q1006 BLU 28008KT CAVOK

METARs OBSOLETI :
  • 030955Z AUTO 28006KT 220V340 9999 FEW210 OVC320 20/10 Q1006 BLU 28008KT CAVOK
  • 030925Z AUTO 27005KT 230V350 9999 FEW200 OVC310 20/11 Q1006 BLU 28008KT CAVOK
  • 030855Z AUTO 28006KT 230V320 9999 BKN200 OVC320 18/11 Q1006 BLU 27006KT 8000 FEW008 BKN0170
  • 030825Z AUTO 28008KT 180V330 9999 OVC180 17/11 Q1007 BLU 27006KT 8000 FEW008 BKN0170
  • 030755Z AUTO 25006KT 200V290 9999 OVC180 16/12 Q1007 BLU 27006KT 8000 FEW008 BKN0170
  • 030740Z AUTO 27005KT 200V310 8000 HZ OVC170 16/12 Q1007 BLU 27006KT 8000 FEW008 BKN0170
  • 030725Z AUTO 27008KT 240V310 7000 BR FEW009 BKN180 BKN300 16/12 Q1007 WHT 27006KT 4800 BR SCT005 BKN007 BECMG 28008KT CAVOK

TAF TAF EHGR
Valido dal 03 a 09 ore il 03 a 21 ore UTC


030815Z 0309/0321 28007KT CAVOK
TEMPO 0313/0317 29010G20KT
BECMG 0315/0318 34008KT



MetMap, La meteo Aeronautica in un colpo d'occhio ! - Copyright ORBIFLY Dicembre 2007 - Disclaimer

ORBIFLY MET'MAP TEAM :

Programmazione e sviluppo : Alexandra Zaïnal
Concezione : Baudouin d'Aumeries
Aiuto per la programmazione : Marc-Olivier Méhu
Supporto tecnico e logistico : Manuel Goepfert
Aiuto per la traduzione : Arnaldo La Scala

Contatto : metmap@orbifly.com




FONTI E CREDITI :

   NOAA